createdAt,value
2023-02-07T00:01:21.321Z,16.10
2023-02-07T00:03:51.307Z,13.13
2023-02-07T00:06:21.874Z,12.40
2023-02-07T00:08:50.930Z,12.97
2023-02-07T00:11:20.976Z,10.57
2023-02-07T00:13:51.429Z,12.20
2023-02-07T00:16:20.181Z,13.33
2023-02-07T00:18:50.140Z,13.83
2023-02-07T00:21:20.303Z,15.47
2023-02-07T00:23:48.349Z,13.07
2023-02-07T00:26:17.999Z,15.03
2023-02-07T00:28:47.562Z,16.70
2023-02-07T00:31:17.870Z,15.33
2023-02-07T00:33:51.046Z,12.43
2023-02-07T00:36:28.027Z,15.17
2023-02-07T00:38:59.483Z,14.23
2023-02-07T00:41:27.876Z,19.00
2023-02-07T00:43:55.849Z,14.90
2023-02-07T00:46:23.914Z,15.63
2023-02-07T00:48:52.272Z,13.83
2023-02-07T00:51:21.485Z,13.17
2023-02-07T00:53:53.818Z,14.53
2023-02-07T00:56:22.925Z,15.83
2023-02-07T00:58:51.290Z,14.43
2023-02-07T01:01:20.272Z,15.20
2023-02-07T01:03:50.395Z,15.20
2023-02-07T01:06:18.639Z,18.50
2023-02-07T01:08:48.811Z,16.57
2023-02-07T01:11:18.963Z,15.70
2023-02-07T01:13:47.139Z,17.43
2023-02-07T01:16:19.653Z,14.17
2023-02-07T01:18:50.659Z,18.50
2023-02-07T01:21:21.629Z,13.87
2023-02-07T01:23:53.933Z,16.00
2023-02-07T01:26:22.010Z,13.63
2023-02-07T01:28:49.945Z,12.90
2023-02-07T01:31:18.200Z,16.53
2023-02-07T01:33:46.188Z,13.60
2023-02-07T01:36:17.447Z,13.77
2023-02-07T01:38:46.375Z,14.67
2023-02-07T01:41:15.913Z,13.20
2023-02-07T01:43:58.937Z,11.10
2023-02-07T01:46:27.079Z,15.47
2023-02-07T01:48:59.702Z,13.13
2023-02-07T01:51:28.606Z,13.33
2023-02-07T01:53:58.882Z,14.10
2023-02-07T01:56:32.340Z,15.87
2023-02-07T01:59:01.465Z,16.77
2023-02-07T02:01:29.305Z,17.20
2023-02-07T02:03:57.823Z,15.00
2023-02-07T02:06:32.952Z,15.10
2023-02-07T02:09:02.728Z,13.07
2023-02-07T02:11:57.255Z,14.80
2023-02-07T02:14:41.613Z,13.13
2023-02-07T02:17:16.885Z,15.03
2023-02-07T02:20:10.143Z,13.43
2023-02-07T02:23:00.687Z,19.67
2023-02-07T02:25:59.819Z,13.03
2023-02-07T02:29:01.909Z,14.67
2023-02-07T02:31:56.899Z,16.40
2023-02-07T02:34:39.518Z,18.87
2023-02-07T02:37:13.329Z,18.40
2023-02-07T02:39:46.963Z,13.40
2023-02-07T02:42:20.167Z,16.77
2023-02-07T02:44:51.554Z,20.13
2023-02-07T02:47:20.709Z,15.03
2023-02-07T02:49:50.383Z,20.67
2023-02-07T02:52:18.453Z,14.37
2023-02-07T02:54:46.104Z,16.53
2023-02-07T02:57:45.109Z,21.30
2023-02-07T03:00:25.902Z,15.83
2023-02-07T03:03:05.360Z,18.10
2023-02-07T03:05:49.820Z,16.23
2023-02-07T03:08:30.293Z,15.93
2023-02-07T03:11:08.915Z,17.43
2023-02-07T03:13:49.204Z,16.73
2023-02-07T03:16:23.515Z,14.07
2023-02-07T03:18:59.375Z,17.67
2023-02-07T03:21:32.452Z,19.70
2023-02-07T03:24:05.728Z,18.43
2023-02-07T03:26:35.488Z,17.93
2023-02-07T03:29:08.028Z,15.37
2023-02-07T03:31:40.798Z,15.77
2023-02-07T03:34:12.194Z,16.13
2023-02-07T03:36:47.496Z,17.47
2023-02-07T03:39:17.165Z,17.47
2023-02-07T03:41:49.918Z,15.67
2023-02-07T03:44:23.369Z,18.73
2023-02-07T03:46:52.016Z,16.93
2023-02-07T03:49:19.743Z,16.70
2023-02-07T03:51:48.962Z,14.83
2023-02-07T03:54:16.911Z,16.13
2023-02-07T03:56:45.009Z,17.43
2023-02-07T03:59:13.091Z,16.63
2023-02-07T04:01:42.547Z,17.73
2023-02-07T04:04:10.439Z,16.90
2023-02-07T04:06:38.263Z,19.87
2023-02-07T04:09:07.495Z,18.90
2023-02-07T04:11:35.144Z,18.77
2023-02-07T04:14:03.220Z,16.07
2023-02-07T04:16:30.897Z,16.77
2023-02-07T04:18:58.549Z,19.30
2023-02-07T04:21:26.185Z,20.10
2023-02-07T04:23:53.763Z,20.87
2023-02-07T04:26:22.748Z,24.40
2023-02-07T04:28:50.388Z,20.80
2023-02-07T04:31:17.995Z,23.27
2023-02-07T04:33:45.607Z,20.07
2023-02-07T04:36:13.204Z,17.73
2023-02-07T04:38:41.245Z,21.60
2023-02-07T04:41:09.925Z,21.20
2023-02-07T04:43:38.923Z,22.03
2023-02-07T04:46:08.217Z,21.37
2023-02-07T04:48:37.959Z,24.43
2023-02-07T04:51:06.399Z,22.40
2023-02-07T04:53:34.231Z,18.50
2023-02-07T04:56:01.894Z,18.83
2023-02-07T04:58:29.698Z,19.87
2023-02-07T05:00:58.987Z,19.57
2023-02-07T05:03:26.811Z,22.37
2023-02-07T05:05:55.423Z,18.83
2023-02-07T05:08:25.844Z,17.10
2023-02-07T05:10:56.055Z,20.60
2023-02-07T05:13:24.930Z,19.20
2023-02-07T05:15:52.629Z,18.70
2023-02-07T05:18:21.844Z,19.03
2023-02-07T05:20:52.196Z,18.70
2023-02-07T05:23:20.043Z,18.10
2023-02-07T05:25:48.758Z,16.73
2023-02-07T05:28:16.980Z,18.83
2023-02-07T05:30:44.733Z,19.70
2023-02-07T05:33:11.999Z,22.63
2023-02-07T05:35:42.480Z,22.07
2023-02-07T05:38:12.276Z,20.20
2023-02-07T05:40:42.188Z,23.63
2023-02-07T05:43:10.855Z,20.07
2023-02-07T05:45:39.241Z,19.00
2023-02-07T05:48:08.374Z,27.50
2023-02-07T05:50:36.742Z,20.73
2023-02-07T05:53:06.182Z,16.67
2023-02-07T05:55:33.766Z,23.83
2023-02-07T05:58:02.606Z,22.03
2023-02-07T06:00:30.566Z,18.03
2023-02-07T06:02:58.370Z,20.87
2023-02-07T06:05:31.375Z,22.10
2023-02-07T06:07:59.116Z,19.23
2023-02-07T06:10:28.103Z,22.67
2023-02-07T06:12:55.909Z,19.70
2023-02-07T06:15:23.745Z,22.80
2023-02-07T06:17:51.723Z,21.03
2023-02-07T06:20:19.663Z,20.13
2023-02-07T06:22:48.278Z,19.13
2023-02-07T06:25:16.221Z,21.87
2023-02-07T06:27:45.223Z,27.80
2023-02-07T06:30:14.052Z,24.50
2023-02-07T06:32:41.727Z,26.83
2023-02-07T06:35:10.396Z,22.20
2023-02-07T06:37:38.136Z,24.07
2023-02-07T06:40:06.773Z,18.83
2023-02-07T06:42:34.641Z,21.90
2023-02-07T06:45:03.990Z,20.20
2023-02-07T06:47:31.601Z,22.47
2023-02-07T06:49:59.315Z,20.07
2023-02-07T06:52:28.027Z,25.50
2023-02-07T06:54:55.675Z,24.77
2023-02-07T06:57:23.630Z,21.60
2023-02-07T06:59:51.329Z,25.10
2023-02-07T07:02:20.485Z,23.27
2023-02-07T07:04:48.258Z,21.73
2023-02-07T07:07:15.848Z,25.87
2023-02-07T07:09:43.584Z,20.83
2023-02-07T07:12:11.659Z,26.47
2023-02-07T07:14:39.352Z,22.77
2023-02-07T07:17:07.214Z,20.70
2023-02-07T07:19:36.238Z,27.43
2023-02-07T07:22:03.964Z,23.00
2023-02-07T07:24:31.600Z,23.07
2023-02-07T07:26:59.361Z,23.67
2023-02-07T07:29:27.019Z,23.50
2023-02-07T07:31:54.747Z,24.50
2023-02-07T07:34:22.491Z,27.57
2023-02-07T07:36:51.640Z,22.53
2023-02-07T07:39:20.915Z,21.57
2023-02-07T07:41:49.561Z,22.37
2023-02-07T07:44:17.764Z,27.77
2023-02-07T07:46:46.809Z,25.90
2023-02-07T07:49:14.654Z,22.73
2023-02-07T07:51:43.477Z,21.70
2023-02-07T07:54:12.502Z,24.37
2023-02-07T07:56:40.238Z,25.33
2023-02-07T07:59:12.138Z,27.30
2023-02-07T08:01:47.757Z,23.43
2023-02-07T08:04:16.517Z,24.67
2023-02-07T08:06:44.126Z,33.13
2023-02-07T08:09:13.171Z,26.27
2023-02-07T08:11:40.823Z,28.67
2023-02-07T08:14:08.496Z,27.73
2023-02-07T08:16:36.263Z,30.17
2023-02-07T08:19:05.217Z,25.83
2023-02-07T08:21:32.902Z,26.83
2023-02-07T08:24:02.002Z,28.03
2023-02-07T08:26:31.212Z,26.83
2023-02-07T08:28:58.858Z,20.37
2023-02-07T08:31:26.479Z,29.43
2023-02-07T08:33:54.671Z,24.73
2023-02-07T08:36:22.368Z,24.50
2023-02-07T08:38:50.036Z,23.87
2023-02-07T08:41:17.718Z,24.40
2023-02-07T08:43:46.647Z,26.63
2023-02-07T08:46:14.592Z,23.40
2023-02-07T08:48:42.322Z,22.00
2023-02-07T08:51:10.904Z,23.50
2023-02-07T08:53:38.559Z,23.07
2023-02-07T08:56:10.047Z,22.30
2023-02-07T08:58:37.668Z,21.93
2023-02-07T09:01:10.865Z,23.53
2023-02-07T09:03:38.814Z,19.63
2023-02-07T09:06:07.286Z,21.23
2023-02-07T09:08:34.952Z,20.63
2023-02-07T09:11:02.625Z,21.70
2023-02-07T09:13:30.333Z,15.27
2023-02-07T09:15:59.838Z,20.93
2023-02-07T09:18:30.963Z,17.97
2023-02-07T09:20:58.680Z,17.80
2023-02-07T09:23:26.278Z,22.57
2023-02-07T09:25:55.068Z,24.77
2023-02-07T09:28:23.259Z,21.13
2023-02-07T09:30:51.574Z,20.80
2023-02-07T09:33:19.592Z,20.53
2023-02-07T09:35:48.538Z,18.70
2023-02-07T09:38:19.225Z,15.73
2023-02-07T09:40:49.636Z,19.27
2023-02-07T09:43:29.401Z,20.30
2023-02-07T09:46:05.436Z,20.60
2023-02-07T09:48:45.689Z,18.93
2023-02-07T09:51:19.919Z,17.73
2023-02-07T09:53:54.462Z,22.30
2023-02-07T09:56:24.968Z,14.77
2023-02-07T09:59:00.183Z,21.10
2023-02-07T10:01:32.868Z,18.27
2023-02-07T10:04:14.640Z,20.23
2023-02-07T10:06:47.915Z,17.87
2023-02-07T10:09:30.981Z,18.00
2023-02-07T10:12:04.250Z,19.40
2023-02-07T10:14:52.297Z,21.97
2023-02-07T10:17:43.591Z,15.80
2023-02-07T10:20:33.524Z,18.73
2023-02-07T10:23:21.524Z,15.67
2023-02-07T10:25:59.152Z,18.80
2023-02-07T10:28:46.158Z,16.90
2023-02-07T10:31:16.596Z,12.03
2023-02-07T10:33:49.134Z,18.23
2023-02-07T10:36:18.299Z,16.10
2023-02-07T10:39:08.431Z,14.53
2023-02-07T10:41:38.962Z,15.77
2023-02-07T10:44:10.940Z,18.03
2023-02-07T10:46:42.137Z,18.73
2023-02-07T10:49:24.820Z,17.97
2023-02-07T10:51:57.979Z,15.90
2023-02-07T10:54:27.031Z,12.83
2023-02-07T10:57:01.635Z,15.33
2023-02-07T10:59:40.556Z,15.33
2023-02-07T11:02:39.510Z,17.77
2023-02-07T11:05:30.036Z,18.30
2023-02-07T11:07:59.542Z,15.40
2023-02-07T11:10:33.722Z,16.80
2023-02-07T11:13:02.417Z,15.60
2023-02-07T11:15:39.790Z,14.67
2023-02-07T11:18:08.794Z,15.63
2023-02-07T11:20:39.326Z,21.17
2023-02-07T11:23:14.322Z,15.27
2023-02-07T11:25:46.897Z,10.97
2023-02-07T11:28:21.787Z,14.70
2023-02-07T11:30:56.405Z,13.43
2023-02-07T11:33:27.419Z,11.93
2023-02-07T11:36:11.908Z,13.67
2023-02-07T11:38:41.450Z,13.27
2023-02-07T11:41:19.713Z,14.13
2023-02-07T11:43:59.308Z,10.30
2023-02-07T11:46:36.558Z,16.17
2023-02-07T11:49:07.297Z,13.17
2023-02-07T11:51:35.264Z,12.03
2023-02-07T11:54:05.797Z,13.57
2023-02-07T11:56:39.569Z,11.70
2023-02-07T11:59:15.508Z,13.50
2023-02-07T12:01:44.994Z,11.30
2023-02-07T12:04:18.147Z,8.20
2023-02-07T12:06:53.154Z,10.53
2023-02-07T12:09:33.796Z,12.57
2023-02-07T12:12:06.182Z,10.23
2023-02-07T12:14:39.928Z,10.43
2023-02-07T12:17:14.124Z,10.13
2023-02-07T12:19:54.102Z,10.73
2023-02-07T12:22:26.180Z,13.50
2023-02-07T12:24:58.992Z,10.37
2023-02-07T12:27:35.608Z,11.23
2023-02-07T12:30:13.778Z,12.77
2023-02-07T12:32:49.946Z,8.77
2023-02-07T12:35:27.155Z,10.33
2023-02-07T12:38:01.636Z,16.17
2023-02-07T12:40:34.882Z,13.77
2023-02-07T12:43:11.955Z,17.53
2023-02-07T12:45:52.718Z,11.30
2023-02-07T12:48:31.339Z,13.50
2023-02-07T12:51:10.164Z,11.23
2023-02-07T12:53:53.417Z,10.87
2023-02-07T12:56:36.615Z,11.47
2023-02-07T12:59:15.082Z,13.60
2023-02-07T13:01:47.555Z,12.60
2023-02-07T13:04:35.411Z,10.63
2023-02-07T13:07:17.704Z,10.87
2023-02-07T13:09:51.952Z,9.30
2023-02-07T13:12:29.401Z,11.53
2023-02-07T13:15:16.829Z,9.60
2023-02-07T13:17:56.467Z,11.67
2023-02-07T13:20:42.263Z,10.97
2023-02-07T13:23:17.394Z,15.03
2023-02-07T13:25:48.684Z,11.47
2023-02-07T13:28:21.987Z,12.50
2023-02-07T13:30:51.880Z,13.53
2023-02-07T13:33:29.048Z,12.13
2023-02-07T13:35:59.725Z,12.53
2023-02-07T13:38:40.013Z,11.57
2023-02-07T13:41:13.369Z,16.67
2023-02-07T13:44:01.666Z,12.90
2023-02-07T13:46:58.810Z,13.13
2023-02-07T13:49:37.827Z,12.00
2023-02-07T13:52:11.951Z,13.80
2023-02-07T13:54:46.628Z,15.00
2023-02-07T13:57:54.474Z,13.13
2023-02-07T14:00:25.030Z,14.67
2023-02-07T14:02:56.193Z,12.53
2023-02-07T14:05:26.885Z,12.80
2023-02-07T14:07:59.302Z,14.60
2023-02-07T14:10:39.670Z,14.83
2023-02-07T14:13:07.486Z,18.73
2023-02-07T14:16:00.418Z,16.73
2023-02-07T14:18:41.189Z,18.80
2023-02-07T14:21:29.682Z,12.80
2023-02-07T14:24:17.796Z,16.73
2023-02-07T14:27:26.763Z,8.57
2023-02-07T14:30:09.687Z,9.20
2023-02-07T14:32:44.245Z,17.27
2023-02-07T14:35:32.971Z,10.07
2023-02-07T14:38:13.824Z,13.43
2023-02-07T14:41:08.538Z,14.13
2023-02-07T14:43:59.738Z,19.90
2023-02-07T14:46:38.358Z,14.80
2023-02-07T14:49:09.286Z,14.77
2023-02-07T14:51:45.028Z,16.30
2023-02-07T14:54:20.387Z,10.80
2023-02-07T14:56:52.772Z,14.67
2023-02-07T14:59:30.039Z,10.10
2023-02-07T15:01:58.002Z,15.63
2023-02-07T15:04:28.144Z,14.43
2023-02-07T15:06:57.042Z,13.47
2023-02-07T15:09:28.199Z,16.60
2023-02-07T15:12:22.307Z,16.47
2023-02-07T15:14:55.135Z,19.90
2023-02-07T15:17:27.149Z,16.50
2023-02-07T15:19:57.342Z,15.77
2023-02-07T15:22:29.103Z,19.40
2023-02-07T15:24:58.398Z,16.30
2023-02-07T15:27:29.088Z,14.40
2023-02-07T15:29:59.043Z,12.17
2023-02-07T15:32:30.233Z,14.30
2023-02-07T15:35:07.461Z,14.63
2023-02-07T15:37:37.460Z,15.07
2023-02-07T15:40:14.533Z,18.60
2023-02-07T15:42:51.662Z,17.50
2023-02-07T15:45:27.031Z,14.67
2023-02-07T15:47:59.394Z,14.70
2023-02-07T15:50:28.915Z,19.33
2023-02-07T15:53:00.624Z,21.23
2023-02-07T15:55:35.129Z,14.17
2023-02-07T15:58:04.025Z,17.87
2023-02-07T16:00:37.832Z,14.43
2023-02-07T16:03:07.494Z,13.40
2023-02-07T16:05:37.943Z,11.80
2023-02-07T16:08:27.916Z,11.53
2023-02-07T16:10:55.752Z,14.67
2023-02-07T16:13:24.048Z,16.03
2023-02-07T16:15:56.850Z,19.50
2023-02-07T16:18:38.841Z,19.30
2023-02-07T16:21:12.447Z,13.37
2023-02-07T16:23:42.225Z,10.40
2023-02-07T16:26:10.185Z,11.70
2023-02-07T16:28:37.890Z,17.33
2023-02-07T16:31:06.037Z,15.57
2023-02-07T16:33:33.757Z,13.73
2023-02-07T16:36:01.360Z,15.80
2023-02-07T16:38:28.958Z,19.37
2023-02-07T16:40:58.145Z,14.87
2023-02-07T16:43:36.397Z,12.60
2023-02-07T16:46:04.357Z,12.13
2023-02-07T16:48:32.501Z,16.97
2023-02-07T16:51:01.324Z,15.70
2023-02-07T16:53:29.208Z,14.03
2023-02-07T16:55:59.144Z,16.27
2023-02-07T16:58:29.266Z,13.07
2023-02-07T17:00:57.131Z,16.10
2023-02-07T17:03:25.188Z,13.50
2023-02-07T17:05:52.823Z,15.53
2023-02-07T17:08:27.783Z,18.47
2023-02-07T17:11:01.239Z,16.10
2023-02-07T17:13:29.180Z,21.27
2023-02-07T17:15:58.083Z,15.03
2023-02-07T17:18:26.900Z,17.57
2023-02-07T17:20:55.820Z,19.43
2023-02-07T17:23:25.241Z,15.50
2023-02-07T17:25:52.910Z,16.10
2023-02-07T17:28:22.792Z,19.90
2023-02-07T17:30:50.810Z,24.47
2023-02-07T17:33:18.575Z,17.60
2023-02-07T17:35:46.220Z,20.23
2023-02-07T17:38:15.043Z,27.33
2023-02-07T17:40:44.999Z,19.07
2023-02-07T17:43:14.387Z,18.13
2023-02-07T17:45:43.594Z,25.10
2023-02-07T17:48:15.273Z,17.63
2023-02-07T17:50:43.915Z,19.37
2023-02-07T17:53:12.487Z,22.10
2023-02-07T17:55:40.239Z,25.27
2023-02-07T17:58:08.232Z,18.00
2023-02-07T18:00:39.098Z,19.70
2023-02-07T18:03:08.977Z,18.33
2023-02-07T18:05:37.216Z,17.47
2023-02-07T18:08:05.234Z,14.63
2023-02-07T18:10:37.016Z,18.30
2023-02-07T18:13:05.246Z,19.00
2023-02-07T18:15:32.984Z,17.13
2023-02-07T18:18:03.691Z,19.83
2023-02-07T18:20:34.441Z,24.17
2023-02-07T18:23:02.171Z,18.03
2023-02-07T18:25:30.987Z,19.80
2023-02-07T18:28:01.273Z,20.70
2023-02-07T18:30:30.047Z,16.30
2023-02-07T18:33:00.511Z,16.33
2023-02-07T18:35:28.660Z,19.37
2023-02-07T18:37:57.610Z,19.27
2023-02-07T18:40:25.308Z,17.40
2023-02-07T18:42:53.182Z,20.37
2023-02-07T18:45:20.807Z,17.67
2023-02-07T18:47:49.450Z,16.40
2023-02-07T18:50:19.431Z,22.73
2023-02-07T18:52:47.206Z,19.80
2023-02-07T18:55:16.312Z,19.40
2023-02-07T18:57:44.175Z,18.63
2023-02-07T19:00:12.878Z,17.47
2023-02-07T19:02:40.597Z,20.20
2023-02-07T19:05:09.294Z,20.57
2023-02-07T19:07:37.563Z,19.13
2023-02-07T19:10:05.418Z,20.43
2023-02-07T19:12:34.630Z,20.93
2023-02-07T19:15:02.292Z,18.80
2023-02-07T19:17:29.876Z,38.57
2023-02-07T19:19:57.541Z,23.60
2023-02-07T19:22:35.486Z,25.17
2023-02-07T19:25:03.837Z,24.93
2023-02-07T19:27:31.541Z,23.33
2023-02-07T19:30:02.371Z,26.17
2023-02-07T19:32:31.181Z,25.57
2023-02-07T19:34:59.393Z,22.73
2023-02-07T19:37:28.095Z,24.20
2023-02-07T19:39:56.424Z,27.70
2023-02-07T19:42:24.999Z,26.53
2023-02-07T19:44:52.656Z,26.77
2023-02-07T19:47:21.620Z,26.63
2023-02-07T19:49:51.700Z,23.17
2023-02-07T19:52:19.854Z,26.20
2023-02-07T19:54:48.114Z,22.50
2023-02-07T19:57:16.924Z,24.67
2023-02-07T19:59:45.532Z,27.00
2023-02-07T20:02:14.797Z,23.73
2023-02-07T20:04:43.817Z,22.67
2023-02-07T20:07:11.626Z,23.63
2023-02-07T20:09:39.313Z,25.60
2023-02-07T20:12:07.958Z,26.60
2023-02-07T20:14:35.984Z,27.97
2023-02-07T20:17:03.607Z,25.63
2023-02-07T20:19:31.276Z,32.23
2023-02-07T20:22:00.406Z,34.60
2023-02-07T20:24:28.866Z,35.00
2023-02-07T20:26:56.625Z,32.83
2023-02-07T20:29:24.296Z,32.13
2023-02-07T20:31:52.015Z,30.10
2023-02-07T20:34:19.706Z,28.33
2023-02-07T20:36:47.606Z,31.57
2023-02-07T20:39:20.740Z,28.50
2023-02-07T20:41:49.399Z,28.13
2023-02-07T20:44:20.616Z,28.53
2023-02-07T20:46:49.534Z,24.73
2023-02-07T20:49:20.687Z,29.20
2023-02-07T20:51:51.978Z,36.60
2023-02-07T20:54:23.939Z,27.07
2023-02-07T20:56:51.921Z,28.77
2023-02-07T20:59:20.998Z,35.03
2023-02-07T21:01:49.150Z,29.77
2023-02-07T21:04:17.364Z,29.43
2023-02-07T21:06:49.067Z,34.30
2023-02-07T21:09:18.203Z,27.90
2023-02-07T21:11:48.948Z,34.90
2023-02-07T21:14:18.452Z,32.53
2023-02-07T21:16:46.587Z,33.40
2023-02-07T21:19:14.715Z,30.47
2023-02-07T21:21:43.700Z,35.60
2023-02-07T21:24:11.257Z,34.50
2023-02-07T21:26:38.846Z,30.97
2023-02-07T21:29:08.485Z,34.57
2023-02-07T21:31:36.648Z,28.80
2023-02-07T21:34:04.806Z,37.27
2023-02-07T21:36:37.413Z,27.50
2023-02-07T21:39:08.429Z,34.00
2023-02-07T21:41:38.500Z,34.37
2023-02-07T21:44:08.210Z,33.77
2023-02-07T21:46:42.798Z,38.57
2023-02-07T21:49:14.517Z,34.10
2023-02-07T21:51:42.660Z,40.03
2023-02-07T21:54:10.436Z,41.07
2023-02-07T21:56:40.014Z,45.27
2023-02-07T21:59:12.385Z,37.50
2023-02-07T22:01:40.330Z,33.50
2023-02-07T22:04:10.232Z,37.30
2023-02-07T22:06:42.403Z,35.87
2023-02-07T22:09:12.529Z,38.57
2023-02-07T22:11:40.222Z,41.80
2023-02-07T22:14:10.049Z,40.67
2023-02-07T22:16:37.725Z,40.97
2023-02-07T22:19:06.820Z,35.47
2023-02-07T22:21:37.243Z,42.23
2023-02-07T22:24:07.138Z,39.90
2023-02-07T22:26:35.467Z,43.43
2023-02-07T22:29:04.036Z,47.33
2023-02-07T22:31:35.794Z,42.93
2023-02-07T22:34:07.072Z,39.60
2023-02-07T22:36:38.287Z,43.60
2023-02-07T22:39:08.195Z,36.47
2023-02-07T22:41:36.633Z,42.03
2023-02-07T22:44:05.418Z,42.00
2023-02-07T22:46:34.487Z,41.60
2023-02-07T22:49:02.084Z,44.33
2023-02-07T22:51:32.278Z,43.20
2023-02-07T22:54:02.071Z,47.87
2023-02-07T22:56:29.687Z,46.73
2023-02-07T22:58:57.336Z,46.30
2023-02-07T23:01:26.756Z,46.53
2023-02-07T23:03:56.556Z,47.77
2023-02-07T23:06:25.302Z,51.90
2023-02-07T23:08:53.850Z,41.80
2023-02-07T23:11:23.935Z,52.83
2023-02-07T23:13:53.384Z,44.27
2023-02-07T23:16:23.036Z,45.53
2023-02-07T23:18:51.924Z,43.10
2023-02-07T23:21:22.450Z,48.00
2023-02-07T23:23:50.779Z,52.00
2023-02-07T23:26:20.743Z,46.97
2023-02-07T23:28:48.417Z,41.33
2023-02-07T23:31:18.065Z,44.50
2023-02-07T23:33:45.777Z,48.03
2023-02-07T23:36:16.654Z,44.53
2023-02-07T23:38:46.765Z,40.23
2023-02-07T23:41:15.434Z,40.10
2023-02-07T23:43:43.158Z,42.17
2023-02-07T23:46:11.724Z,44.47
2023-02-07T23:48:39.346Z,44.60
2023-02-07T23:51:07.893Z,54.47
2023-02-07T23:53:36.022Z,49.97
2023-02-07T23:56:06.917Z,40.97
2023-02-07T23:58:34.888Z,47.73
